createdAt,value
2018-08-16T00:00:29.526Z,18.22
2018-08-16T00:02:59.570Z,18.23
2018-08-16T00:05:29.217Z,18.21
2018-08-16T00:07:58.503Z,18.18
2018-08-16T00:10:28.072Z,18.15
2018-08-16T00:13:00.931Z,18.13
2018-08-16T00:15:30.400Z,18.11
2018-08-16T00:17:59.568Z,18.10
2018-08-16T00:20:29.099Z,18.04
2018-08-16T00:22:58.294Z,18.03
2018-08-16T00:25:27.840Z,17.98
2018-08-16T00:27:57.001Z,17.92
2018-08-16T00:30:26.161Z,17.91
2018-08-16T00:32:55.644Z,17.90
2018-08-16T00:35:24.836Z,17.87
2018-08-16T00:37:53.976Z,17.86
2018-08-16T00:40:24.872Z,17.81
2018-08-16T00:42:56.656Z,17.78
2018-08-16T00:45:25.829Z,17.73
2018-08-16T00:47:55.082Z,17.70
2018-08-16T00:50:24.670Z,17.67
2018-08-16T00:52:55.212Z,17.66
2018-08-16T00:55:24.468Z,17.66
2018-08-16T00:57:53.692Z,17.64
2018-08-16T01:00:24.402Z,17.60
2018-08-16T01:02:53.715Z,17.55
2018-08-16T01:05:23.764Z,17.58
2018-08-16T01:07:53.750Z,17.55
2018-08-16T01:10:24.077Z,17.53
2018-08-16T01:12:53.770Z,17.53
2018-08-16T01:15:23.795Z,17.49
2018-08-16T01:17:53.740Z,17.48
2018-08-16T01:20:23.795Z,17.44
2018-08-16T01:22:53.769Z,17.44
2018-08-16T01:25:25.049Z,17.39
2018-08-16T01:27:54.921Z,17.37
2018-08-16T01:30:24.898Z,17.37
2018-08-16T01:32:54.972Z,17.32
2018-08-16T01:35:25.032Z,17.29
2018-08-16T01:37:54.190Z,17.25
2018-08-16T01:40:23.928Z,17.24
2018-08-16T01:42:53.942Z,17.21
2018-08-16T01:45:24.615Z,17.18
2018-08-16T01:47:53.868Z,17.12
2018-08-16T01:50:23.882Z,17.11
2018-08-16T01:52:53.960Z,17.07
2018-08-16T01:55:23.912Z,17.05
2018-08-16T01:57:53.950Z,17.05
2018-08-16T02:00:23.958Z,17.00
2018-08-16T02:02:56.640Z,17.00
2018-08-16T02:05:27.861Z,16.95
2018-08-16T02:07:59.230Z,16.93
2018-08-16T02:10:28.708Z,16.90
2018-08-16T02:13:01.243Z,16.88
2018-08-16T02:15:30.826Z,16.85
2018-08-16T02:18:30.469Z,16.84
2018-08-16T02:21:33.479Z,16.79
2018-08-16T02:24:37.013Z,16.79
2018-08-16T02:27:40.554Z,16.79
2018-08-16T02:30:43.789Z,16.77
2018-08-16T02:33:47.077Z,16.75
2018-08-16T02:36:50.540Z,16.71
2018-08-16T02:39:54.272Z,16.70
2018-08-16T02:42:58.987Z,16.69
2018-08-16T02:46:02.443Z,16.67
2018-08-16T02:49:06.011Z,16.66
2018-08-16T02:52:09.472Z,16.66
2018-08-16T02:55:12.971Z,16.63
2018-08-16T02:58:16.516Z,16.64
2018-08-16T03:01:19.976Z,16.62
2018-08-16T03:04:23.458Z,16.59
2018-08-16T03:07:30.647Z,16.58
2018-08-16T03:10:35.294Z,16.55
2018-08-16T03:13:38.784Z,16.52
2018-08-16T03:16:42.154Z,16.50
2018-08-16T03:19:45.785Z,16.48
2018-08-16T03:22:49.448Z,16.46
2018-08-16T03:25:52.482Z,16.44
2018-08-16T04:26:38.542Z,16.40
2018-08-16T04:29:42.494Z,15.99
2018-08-16T04:32:46.500Z,16.03
2018-08-16T04:35:50.881Z,16.11
2018-08-16T04:38:55.320Z,16.13
2018-08-16T04:42:00.167Z,16.11
2018-08-16T04:45:04.317Z,16.10
2018-08-16T04:48:08.082Z,16.08
2018-08-16T04:51:11.824Z,16.04
2018-08-16T04:54:15.324Z,16.02
2018-08-16T04:57:18.343Z,16.08
2018-08-16T05:00:21.835Z,16.10
2018-08-16T05:03:24.789Z,16.16
2018-08-16T05:06:29.777Z,16.20
2018-08-16T05:09:35.816Z,16.21
2018-08-16T05:12:41.403Z,16.27
2018-08-16T05:15:45.045Z,16.38
2018-08-16T05:18:48.797Z,16.41
2018-08-16T05:21:52.060Z,16.47
2018-08-16T05:24:55.093Z,16.54
2018-08-16T05:28:00.134Z,16.59
2018-08-16T05:31:03.124Z,16.73
2018-08-16T05:34:06.741Z,16.90
2018-08-16T05:37:10.560Z,16.87
2018-08-16T05:40:14.133Z,16.85
2018-08-16T05:43:17.680Z,16.84
2018-08-16T05:46:21.085Z,16.88
2018-08-16T05:49:25.477Z,16.88
2018-08-16T05:52:30.561Z,16.93
2018-08-16T05:55:34.043Z,16.97
2018-08-16T05:58:37.801Z,17.08
2018-08-16T06:01:41.331Z,17.12
2018-08-16T06:04:45.194Z,17.20
2018-08-16T06:07:49.093Z,17.29
2018-08-16T06:10:52.289Z,17.35
2018-08-16T06:13:55.446Z,17.43
2018-08-16T06:17:00.104Z,17.52
2018-08-16T06:20:03.624Z,17.62
2018-08-16T06:23:07.215Z,17.68
2018-08-16T06:26:10.660Z,17.74
2018-08-16T06:29:14.198Z,17.84
2018-08-16T06:32:17.203Z,17.90
2018-08-16T06:35:20.804Z,17.99
2018-08-16T06:38:24.211Z,18.09
2018-08-16T06:41:30.741Z,18.19
2018-08-16T06:44:33.941Z,18.29
2018-08-16T06:47:37.768Z,18.36
2018-08-16T06:50:41.458Z,18.40
2018-08-16T06:53:46.203Z,18.47
2018-08-16T06:56:49.852Z,18.55
2018-08-16T06:59:53.077Z,18.68
2018-08-16T07:28:59.743Z,19.68
2018-08-16T07:31:29.004Z,19.79
2018-08-16T07:34:00.324Z,19.87
2018-08-16T07:36:29.878Z,19.93
2018-08-16T07:38:59.078Z,19.95
2018-08-16T07:41:28.602Z,19.93
2018-08-16T07:43:58.144Z,20.03
2018-08-16T07:46:30.286Z,20.17
2018-08-16T07:48:59.512Z,20.28
2018-08-16T07:51:29.996Z,20.33
2018-08-16T07:53:58.961Z,20.51
2018-08-16T07:56:28.192Z,20.69
2018-08-16T07:58:57.407Z,20.80
2018-08-16T08:01:26.601Z,20.91
2018-08-16T08:03:56.501Z,20.98
2018-08-16T08:06:26.592Z,21.05
2018-08-16T08:08:56.505Z,21.13
2018-08-16T08:11:26.986Z,21.22
2018-08-16T08:13:56.500Z,21.27
2018-08-16T08:16:26.589Z,21.29
2018-08-16T08:18:56.606Z,21.33
2018-08-16T08:21:26.602Z,21.38
2018-08-16T08:23:56.685Z,21.49
2018-08-16T08:26:27.469Z,21.58
2018-08-16T08:28:56.646Z,21.73
2018-08-16T08:31:27.221Z,21.82
2018-08-16T08:33:56.732Z,21.81
2018-08-16T08:36:38.153Z,21.92
2018-08-16T08:39:08.561Z,22.12
2018-08-16T08:41:38.089Z,22.29
2018-08-16T08:44:13.977Z,22.47
2018-08-16T08:46:44.228Z,22.64
2018-08-16T08:49:13.429Z,22.75
2018-08-16T08:51:42.657Z,22.80
2018-08-16T08:54:31.549Z,22.81
2018-08-16T08:57:12.282Z,22.84
2018-08-16T08:59:42.065Z,22.91
2018-08-16T09:02:14.681Z,23.03
2018-08-16T09:04:43.866Z,23.10
2018-08-16T09:07:14.827Z,23.14
2018-08-16T09:11:04.093Z,23.17
2018-08-16T09:13:45.186Z,23.37
2018-08-16T09:16:22.883Z,23.50
2018-08-16T09:18:52.079Z,23.59
2018-08-16T09:21:22.013Z,23.66
2018-08-16T09:23:51.323Z,23.72
2018-08-16T09:26:25.643Z,23.78
2018-08-16T09:28:54.927Z,23.76
2018-08-16T09:31:35.446Z,23.77
2018-08-16T09:34:15.891Z,23.79
2018-08-16T09:36:45.145Z,23.87
2018-08-16T09:39:14.416Z,24.02
2018-08-16T09:41:43.666Z,24.11
2018-08-16T09:44:12.966Z,24.16
2018-08-16T09:46:57.648Z,24.20
2018-08-16T09:49:27.630Z,24.24
2018-08-16T09:51:57.196Z,24.35
2018-08-16T09:54:27.196Z,24.38
2018-08-16T09:56:58.134Z,24.43
2018-08-16T09:59:27.328Z,24.51
2018-08-16T10:01:57.024Z,24.55
2018-08-16T10:04:27.480Z,24.61
2018-08-16T10:06:57.149Z,24.59
2018-08-16T10:09:29.964Z,24.63
2018-08-16T10:12:00.212Z,24.67
2018-08-16T10:14:29.382Z,24.74
2018-08-16T10:16:58.560Z,24.78
2018-08-16T10:19:28.323Z,24.94
2018-08-16T10:21:59.496Z,25.03
2018-08-16T10:24:28.762Z,25.05
2018-08-16T10:26:58.021Z,25.15
2018-08-16T10:29:27.309Z,25.18
2018-08-16T10:31:59.418Z,25.22
2018-08-16T10:34:29.338Z,25.24
2018-08-16T10:36:58.511Z,25.19
2018-08-16T10:39:27.686Z,25.17
2018-08-16T10:41:59.860Z,25.26
2018-08-16T10:44:29.157Z,25.33
2018-08-16T10:46:58.325Z,25.31
2018-08-16T10:49:27.571Z,25.41
2018-08-16T10:51:57.388Z,25.46
2018-08-16T10:54:27.401Z,25.50
2018-08-16T10:56:59.271Z,25.47
2018-08-16T10:59:28.472Z,25.44
2018-08-16T11:01:57.644Z,25.49
2018-08-16T11:04:27.457Z,25.63
2018-08-16T11:06:59.414Z,25.71
2018-08-16T11:09:29.315Z,25.78
2018-08-16T11:11:58.502Z,25.66
2018-08-16T11:14:30.900Z,25.77
2018-08-16T11:17:00.092Z,25.64
2018-08-16T11:19:29.348Z,25.45
2018-08-16T11:21:58.536Z,25.46
2018-08-16T11:24:28.699Z,25.63
2018-08-16T11:26:57.901Z,25.67
2018-08-16T11:29:27.660Z,25.75
2018-08-16T11:31:57.606Z,25.80
2018-08-16T11:34:28.906Z,25.85
2018-08-16T11:37:00.548Z,25.95
2018-08-16T11:39:29.740Z,25.94
2018-08-16T11:41:58.974Z,25.93
2018-08-16T11:44:28.096Z,25.82
2018-08-16T11:47:00.297Z,25.89
2018-08-16T11:49:29.456Z,25.91
2018-08-16T11:51:58.643Z,25.98
2018-08-16T11:54:27.822Z,26.16
2018-08-16T11:56:57.806Z,26.30
2018-08-16T11:59:27.928Z,26.37
2018-08-16T12:01:59.624Z,26.34
2018-08-16T12:04:29.758Z,26.38
2018-08-16T12:07:00.527Z,26.47
2018-08-16T12:09:30.438Z,26.60
2018-08-16T12:11:59.962Z,26.66
2018-08-16T12:14:29.193Z,26.48
2018-08-16T12:16:58.349Z,26.41
2018-08-16T12:19:29.103Z,26.46
2018-08-16T12:21:58.374Z,26.63
2018-08-16T12:24:28.153Z,26.69
2018-08-16T12:26:57.990Z,26.74
2018-08-16T12:29:28.045Z,26.83
2018-08-16T12:31:57.970Z,27.00
2018-08-16T12:34:27.992Z,27.04
2018-08-16T12:36:58.011Z,27.02
2018-08-16T12:39:28.146Z,26.98
2018-08-16T12:41:58.073Z,27.04
2018-08-16T12:44:29.857Z,27.16
2018-08-16T12:46:59.057Z,27.18
2018-08-16T12:49:28.261Z,27.28
2018-08-16T12:51:58.138Z,27.25
2018-08-16T12:54:28.122Z,27.28
2018-08-16T12:56:58.171Z,27.35
2018-08-16T12:59:29.405Z,27.38
2018-08-16T13:01:58.720Z,27.42
2018-08-16T13:04:28.217Z,27.44
2018-08-16T13:07:00.006Z,27.29
2018-08-16T13:09:29.210Z,27.41
2018-08-16T13:11:59.491Z,27.49
2018-08-16T13:14:28.706Z,27.46
2018-08-16T13:16:58.365Z,27.42
2018-08-16T13:19:28.389Z,27.46
2018-08-16T13:22:00.016Z,27.52
2018-08-16T13:24:29.206Z,27.69
2018-08-16T13:26:58.733Z,27.74
2018-08-16T13:29:28.404Z,27.90
2018-08-16T13:31:58.857Z,28.04
2018-08-16T13:34:32.143Z,27.98
2018-08-16T13:37:04.093Z,27.96
2018-08-16T13:39:35.288Z,27.98
2018-08-16T13:42:04.505Z,28.09
2018-08-16T13:44:34.015Z,28.08
2018-08-16T13:47:03.205Z,28.14
2018-08-16T13:49:32.686Z,28.24
2018-08-16T13:52:02.220Z,28.32
2018-08-16T13:54:31.683Z,28.37
2018-08-16T13:57:00.871Z,28.39
2018-08-16T13:59:30.039Z,28.47
2018-08-16T14:01:59.245Z,28.58
2018-08-16T14:04:30.480Z,28.70
2018-08-16T14:06:59.625Z,28.71
2018-08-16T14:09:28.839Z,28.84
2018-08-16T14:11:58.829Z,29.01
2018-08-16T14:14:29.408Z,29.13
2018-08-16T14:16:59.946Z,29.20
2018-08-16T14:19:29.953Z,29.28
2018-08-16T14:22:00.021Z,29.45
2018-08-16T14:24:29.970Z,29.81
2018-08-16T14:26:59.263Z,30.25
2018-08-16T14:29:28.909Z,30.51
2018-08-16T14:31:58.984Z,30.89
2018-08-16T14:34:28.886Z,31.14
2018-08-16T14:37:01.577Z,31.42
2018-08-16T14:39:31.524Z,31.50
2018-08-16T14:42:01.091Z,31.68
2018-08-16T14:44:30.421Z,31.79
2018-08-16T14:47:00.041Z,32.00
2018-08-16T14:49:29.307Z,32.00
2018-08-16T14:51:59.308Z,32.23
2018-08-16T14:54:28.930Z,32.34
2018-08-16T14:57:01.863Z,32.32
2018-08-16T14:59:32.132Z,32.44
2018-08-16T15:02:01.347Z,32.60
2018-08-16T15:04:30.549Z,32.54
2018-08-16T15:06:59.821Z,32.47
2018-08-16T15:09:29.433Z,32.61
2018-08-16T15:11:59.147Z,32.85
2018-08-16T15:14:29.105Z,32.89
2018-08-16T15:16:59.177Z,32.85
2018-08-16T15:19:29.506Z,32.77
2018-08-16T15:21:59.959Z,32.78
2018-08-16T15:24:29.169Z,32.81
2018-08-16T15:26:59.267Z,32.99
2018-08-16T15:29:29.240Z,33.00
2018-08-16T15:31:58.423Z,32.90
2018-08-16T15:34:27.644Z,32.87
2018-08-16T15:36:57.610Z,32.72
2018-08-16T15:39:26.808Z,32.44
2018-08-16T15:41:56.033Z,32.35
2018-08-16T15:44:26.882Z,32.21
2018-08-16T15:46:56.047Z,32.28
2018-08-16T15:49:25.275Z,32.22
2018-08-16T15:51:56.923Z,32.21
2018-08-16T15:54:26.102Z,32.17
2018-08-16T15:56:55.254Z,32.20
2018-08-16T15:59:24.451Z,32.02
2018-08-16T16:01:53.664Z,31.79
2018-08-16T16:04:22.889Z,31.45
2018-08-16T16:06:52.125Z,31.25
2018-08-16T16:09:21.365Z,30.98
2018-08-16T16:11:50.543Z,30.75
2018-08-16T16:14:19.847Z,30.55
2018-08-16T16:16:49.003Z,30.48
2018-08-16T16:19:18.243Z,30.23
2018-08-16T16:21:48.217Z,30.01
2018-08-16T16:24:17.391Z,29.81
2018-08-16T16:26:46.600Z,29.64
2018-08-16T16:29:15.797Z,29.45
2018-08-16T16:31:45.002Z,29.23
2018-08-16T16:34:16.612Z,28.94
2018-08-16T16:36:45.806Z,28.79
2018-08-16T16:39:16.776Z,28.50
2018-08-16T16:41:47.731Z,28.33
2018-08-16T16:44:16.905Z,28.13
2018-08-16T16:46:46.105Z,27.94
2018-08-16T16:49:18.087Z,27.88
2018-08-16T16:51:47.311Z,27.83
2018-08-16T16:54:16.505Z,27.77
2018-08-16T16:56:45.704Z,27.69
2018-08-16T16:59:14.941Z,27.61
2018-08-16T17:01:44.143Z,27.52
2018-08-16T17:04:13.539Z,27.44
2018-08-16T17:06:44.460Z,27.32
2018-08-16T17:09:16.244Z,27.23
2018-08-16T17:11:45.456Z,27.13
2018-08-16T17:14:14.716Z,27.07
2018-08-16T17:16:43.942Z,27.02
2018-08-16T17:19:13.147Z,26.98
2018-08-16T17:21:42.389Z,26.93
2018-08-16T17:24:11.616Z,26.90
2018-08-16T17:26:41.594Z,26.84
2018-08-16T17:29:10.757Z,26.76
2018-08-16T17:31:40.256Z,26.65
2018-08-16T17:34:10.242Z,26.57
2018-08-16T17:36:39.977Z,26.49
2018-08-16T17:39:09.102Z,26.42
2018-08-16T17:41:40.285Z,26.34
2018-08-16T17:44:09.572Z,26.28
2018-08-16T17:46:39.109Z,26.22
2018-08-16T17:49:08.392Z,26.14
2018-08-16T17:51:37.939Z,26.06
2018-08-16T17:54:07.299Z,25.98
2018-08-16T17:56:36.899Z,25.92
2018-08-16T17:59:06.216Z,25.84
2018-08-16T18:01:35.994Z,25.79
2018-08-16T18:04:05.249Z,25.70
2018-08-16T18:06:34.730Z,25.63
2018-08-16T18:09:06.392Z,25.57
2018-08-16T18:11:35.902Z,25.49
2018-08-16T18:14:05.168Z,25.40
2018-08-16T18:16:34.975Z,25.32
2018-08-16T18:19:04.175Z,25.21
2018-08-16T18:21:33.856Z,25.15
2018-08-16T18:24:03.077Z,25.09
2018-08-16T18:26:32.256Z,25.01
2018-08-16T18:29:03.461Z,24.94
2018-08-16T18:31:32.739Z,24.88
2018-08-16T18:34:02.275Z,24.81
2018-08-16T18:36:31.745Z,24.76
2018-08-16T18:39:01.744Z,24.68
2018-08-16T18:41:31.706Z,24.61
2018-08-16T18:44:01.823Z,24.53
2018-08-16T18:46:34.081Z,24.43
2018-08-16T18:49:03.383Z,24.37
2018-08-16T18:51:32.659Z,24.28
2018-08-16T18:54:04.750Z,24.21
2018-08-16T18:56:34.373Z,24.15
2018-08-16T18:59:03.707Z,24.06
2018-08-16T19:01:32.934Z,23.99
2018-08-16T19:04:02.459Z,23.91
2018-08-16T19:06:32.075Z,23.86
2018-08-16T19:09:03.876Z,23.81
2018-08-16T19:11:35.296Z,23.76
2018-08-16T19:14:04.801Z,23.70
2018-08-16T19:16:34.202Z,23.64
2018-08-16T19:19:05.170Z,23.55
2018-08-16T19:21:35.059Z,23.47
2018-08-16T19:24:04.602Z,23.39
2018-08-16T19:26:35.177Z,23.35
2018-08-16T19:29:04.487Z,23.27
2018-08-16T19:31:36.040Z,23.20
2018-08-16T19:34:05.306Z,23.11
2018-08-16T19:36:34.830Z,23.05
2018-08-16T19:39:09.329Z,22.96
2018-08-16T19:41:38.875Z,22.94
2018-08-16T19:44:08.119Z,22.92
2018-08-16T19:46:38.468Z,22.84
2018-08-16T19:49:09.551Z,22.80
2018-08-16T19:51:38.815Z,22.76
2018-08-16T19:54:09.910Z,22.68
2018-08-16T19:56:42.184Z,22.63
2018-08-16T19:59:11.451Z,22.57
2018-08-16T20:01:41.130Z,22.53
2018-08-16T20:04:10.369Z,22.48
2018-08-16T20:06:39.691Z,22.44
2018-08-16T20:09:11.805Z,22.40
2018-08-16T20:11:41.421Z,22.37
2018-08-16T20:14:10.670Z,22.31
2018-08-16T20:16:40.827Z,22.27
2018-08-16T20:19:10.159Z,22.20
2018-08-16T20:21:40.574Z,22.17
2018-08-16T20:24:09.983Z,22.13
2018-08-16T20:26:39.538Z,22.10
2018-08-16T20:29:09.662Z,22.04
2018-08-16T20:31:39.284Z,21.98
2018-08-16T20:34:08.698Z,21.92
2018-08-16T20:36:40.036Z,21.87
2018-08-16T20:39:10.286Z,21.83
2018-08-16T20:41:40.295Z,21.76
2018-08-16T20:44:11.344Z,21.67
2018-08-16T20:46:42.279Z,21.61
2018-08-16T20:49:11.548Z,21.54
2018-08-16T20:51:40.845Z,21.49
2018-08-16T20:54:10.119Z,21.44
2018-08-16T20:56:39.853Z,21.37
2018-08-16T20:59:09.121Z,21.26
2018-08-16T21:01:38.681Z,21.24
2018-08-16T21:04:07.896Z,21.16
2018-08-16T21:06:37.845Z,21.11
2018-08-16T21:09:08.750Z,21.01
2018-08-16T21:11:39.298Z,21.00
2018-08-16T21:14:08.774Z,20.95
2018-08-16T21:16:38.448Z,20.91
2018-08-16T21:19:07.675Z,20.85
2018-08-16T21:21:37.405Z,20.79
2018-08-16T21:24:06.647Z,20.75
2018-08-16T21:26:36.127Z,20.70
2018-08-16T21:29:05.408Z,20.63
2018-08-16T21:31:34.976Z,20.57
2018-08-16T21:34:04.197Z,20.50
2018-08-16T21:36:36.036Z,20.42
2018-08-16T21:39:08.425Z,20.39
2018-08-16T21:41:38.076Z,20.34
2018-08-16T21:44:07.804Z,20.29
2018-08-16T21:46:37.476Z,20.22
2018-08-16T21:49:08.736Z,20.17
2018-08-16T21:51:38.342Z,20.15
2018-08-16T21:54:09.393Z,20.13
2018-08-16T21:56:39.023Z,20.06
2018-08-16T21:59:10.161Z,20.04
2018-08-16T22:01:39.754Z,20.03
2018-08-16T22:04:08.927Z,20.01
2018-08-16T22:06:49.401Z,19.98
2018-08-16T22:09:18.550Z,19.94
2018-08-16T22:11:47.732Z,19.89
2018-08-16T22:14:16.909Z,19.85
2018-08-16T22:16:46.108Z,19.82
2018-08-16T22:19:15.275Z,19.77
2018-08-16T22:21:44.449Z,19.73
2018-08-16T22:24:13.600Z,19.65
2018-08-16T22:26:42.824Z,19.59
2018-08-16T22:29:43.181Z,19.56
2018-08-16T22:32:12.377Z,19.49
2018-08-16T22:34:41.566Z,19.45
2018-08-16T22:37:10.813Z,19.42
2018-08-16T22:39:40.423Z,19.38
2018-08-16T22:42:13.123Z,19.33
2018-08-16T22:44:42.366Z,19.29
2018-08-16T22:47:14.077Z,19.29
2018-08-16T22:49:43.240Z,19.29
2018-08-16T22:52:12.779Z,19.27
2018-08-16T22:54:41.971Z,19.27
2018-08-16T22:57:11.194Z,19.29
2018-08-16T22:59:40.691Z,19.29
2018-08-16T23:02:09.856Z,19.28
2018-08-16T23:04:41.194Z,19.31
2018-08-16T23:07:10.446Z,19.32
2018-08-16T23:09:39.969Z,19.31
2018-08-16T23:12:09.259Z,19.29
2018-08-16T23:14:38.826Z,19.25
2018-08-16T23:17:08.023Z,19.24
2018-08-16T23:19:37.494Z,19.23
2018-08-16T23:22:06.693Z,19.22
2018-08-16T23:24:36.213Z,19.20
2018-08-16T23:27:05.455Z,19.16
2018-08-16T23:29:35.477Z,19.11
2018-08-16T23:32:05.173Z,19.08
2018-08-16T23:34:35.642Z,19.06
2018-08-16T23:37:05.602Z,19.06
2018-08-16T23:39:36.677Z,19.08
2018-08-16T23:42:07.626Z,19.06
2018-08-16T23:44:37.145Z,19.05
2018-08-16T23:47:08.897Z,19.05
2018-08-16T23:49:38.420Z,19.04
2018-08-16T23:52:10.233Z,19.00
2018-08-16T23:54:39.777Z,18.97
2018-08-16T23:57:08.975Z,18.93
2018-08-16T23:59:38.525Z,18.85
